Time;durP1;ratioP1;P1;durP2;ratioP2;P2;SDS_P1;SDS_P2;PMS_P1;PMS_P2;Temp;Humidity;BMP_temperature;BMP_pressure;BME280_temperature;BME280_humidity;BME280_pressure;Samples;Min_cycle;Max_cycle;Signal;HPM_P1;HPM_P2
2022/03/26 00:02:17;;;;;;;57.22;41.38;;;10.50;77.30;;;;;;5032765;28;20551;-57
2022/03/26 00:05:03;;;;;;;126.40;80.22;;;10.40;77.90;;;;;;5032357;28;20119;-60
2022/03/26 00:07:48;;;;;;;134.95;81.53;;;10.40;78.90;;;;;;5032343;28;20048;-55
2022/03/26 00:10:32;;;;;;;115.17;71.50;;;10.40;78.80;;;;;;5032914;28;20044;-60
2022/03/26 00:13:17;;;;;;;88.80;54.40;;;10.40;78.80;;;;;;5033187;28;20512;-58
2022/03/26 00:16:01;;;;;;;75.60;46.63;;;10.40;79.20;;;;;;5032369;28;20048;-50
2022/03/26 00:18:46;;;;;;;72.72;44.65;;;10.40;80.10;;;;;;5033300;28;20072;-51
2022/03/26 00:21:30;;;;;;;59.37;40.87;;;10.30;80.20;;;;;;5031159;28;20064;-54
2022/03/26 00:24:15;;;;;;;64.35;42.15;;;10.20;80.20;;;;;;5033148;28;20037;-52
2022/03/26 00:26:59;;;;;;;61.80;41.38;;;10.20;80.50;;;;;;5032946;28;20044;-57
2022/03/26 00:29:44;;;;;;;57.22;38.80;;;10.10;80.90;;;;;;5032910;28;20028;-54
2022/03/26 00:32:29;;;;;;;58.75;38.30;;;10.10;80.80;;;;;;5032598;28;20397;-51
2022/03/26 00:35:13;;;;;;;56.67;37.17;;;10.10;81.00;;;;;;5032243;28;20023;-53
2022/03/26 00:37:58;;;;;;;59.13;37.92;;;10.00;80.90;;;;;;5008780;28;20028;-58
2022/03/26 00:40:42;;;;;;;56.40;37.30;;;10.10;81.10;;;;;;5013461;28;20129;-53
2022/03/26 00:43:27;;;;;;;59.90;38.08;;;10.00;81.50;;;;;;4997535;28;20045;-54
2022/03/26 00:46:11;;;;;;;55.17;36.53;;;10.10;81.70;;;;;;4997296;28;20033;-53
2022/03/26 00:48:59;;;;;;;52.20;37.20;;;10.10;82.20;;;;;;5027445;28;20512;-53
2022/03/26 00:51:44;;;;;;;48.72;34.50;;;10.10;82.20;;;;;;5025115;28;20060;-56
2022/03/26 00:54:30;;;;;;;;;;;10.00;81.30;;;;;;5025596;28;20064;-55
2022/03/26 00:57:16;;;;;;;54.13;37.53;;;9.90;80.90;;;;;;5014815;28;20331;-53
2022/03/26 01:00:01;;;;;;;57.42;37.05;;;9.90;81.40;;;;;;5027650;28;20032;-46
2022/03/26 01:02:44;;;;;;;52.03;36.50;;;9.80;82.20;;;;;;5026135;28;20052;-63
2022/03/26 01:05:29;;;;;;;54.33;37.33;;;9.90;82.50;;;;;;5030423;28;20103;-48
2022/03/26 01:08:13;;;;;;;54.40;37.08;;;9.80;82.90;;;;;;5036709;28;20432;-57
2022/03/26 01:10:58;;;;;;;60.38;38.08;;;9.80;83.00;;;;;;5030686;28;20082;-52
2022/03/26 01:13:42;;;;;;;57.45;38.40;;;9.80;82.90;;;;;;5032246;28;20100;-54
2022/03/26 01:16:27;;;;;;;60.03;42.42;;;9.70;83.40;;;;;;5032341;28;20063;-53
2022/03/26 01:19:11;;;;;;;;;;;9.70;84.10;;;;;;5033202;28;20055;-52
2022/03/26 01:21:55;;;;;;;53.85;37.53;;;9.70;83.60;;;;;;5032120;28;19916;-50
2022/03/26 01:24:40;;;;;;;61.20;38.42;;;9.70;82.10;;;;;;5032171;28;20543;-52
2022/03/26 01:27:24;;;;;;;52.08;35.72;;;9.60;82.00;;;;;;5032044;28;20088;-52
2022/03/26 01:30:08;;;;;;;51.20;36.95;;;9.60;81.80;;;;;;5031785;28;20164;-50
2022/03/26 01:32:53;;;;;;;56.05;37.00;;;9.60;81.40;;;;;;5032057;28;20033;-49
2022/03/26 01:35:37;;;;;;;53.45;36.50;;;9.50;81.60;;;;;;5032373;28;20405;-48
2022/03/26 01:38:22;;;;;;;54.28;37.03;;;9.40;81.60;;;;;;5032044;28;20094;-50
2022/03/26 01:41:06;;;;;;;61.07;40.63;;;9.40;82.20;;;;;;5031925;28;20036;-49
2022/03/26 01:43:50;;;;;;;57.90;38.73;;;9.30;83.20;;;;;;5014192;28;20556;-48
2022/03/26 01:46:53;;;;;;;55.33;38.45;;;9.30;83.90;;;;;;5013260;28;20401;-50
2022/03/26 01:49:37;;;;;;;51.85;36.63;;;9.30;84.70;;;;;;5012375;28;20032;-49
2022/03/26 01:52:21;;;;;;;57.83;38.90;;;9.40;85.00;;;;;;5012745;28;20123;-50
2022/03/26 01:55:06;;;;;;;56.65;38.92;;;9.40;85.00;;;;;;5012529;28;20041;-48
2022/03/26 01:57:50;;;;;;;51.33;36.80;;;9.40;85.20;;;;;;5012863;28;20033;-49
2022/03/26 02:00:35;;;;;;;54.78;37.88;;;9.20;85.70;;;;;;5012986;28;20594;-52
2022/03/26 02:03:20;;;;;;;56.58;38.38;;;9.30;86.30;;;;;;5012274;28;20072;-56
2022/03/26 02:06:04;;;;;;;55.25;39.05;;;9.20;86.70;;;;;;5012835;28;20045;-53
2022/03/26 02:08:48;;;;;;;63.10;39.53;;;9.00;87.40;;;;;;4998717;28;20544;-55
2022/03/26 02:11:35;;;;;;;59.85;40.30;;;8.90;87.20;;;;;;5042279;28;20097;-61
2022/03/26 02:14:19;;;;;;;60.30;38.78;;;8.90;87.50;;;;;;5044517;28;20037;-54
2022/03/26 02:17:03;;;;;;;56.45;38.95;;;8.90;87.50;;;;;;5034154;28;20130;-51
2022/03/26 02:19:54;;;;;;;58.85;39.78;;;8.90;87.30;;;;;;5054930;28;20075;-49
2022/03/26 02:22:39;;;;;;;57.95;39.83;;;8.90;87.40;;;;;;5039740;28;20043;-52
2022/03/26 02:25:23;;;;;;;57.05;37.35;;;8.90;87.60;;;;;;5049155;28;20032;-55
2022/03/26 02:28:08;;;;;;;55.72;38.47;;;8.90;88.00;;;;;;5040862;28;20053;-48
2022/03/26 02:30:53;;;;;;;56.60;37.95;;;8.80;88.60;;;;;;5053986;28;20028;-52
2022/03/26 02:33:37;;;;;;;53.50;37.17;;;8.80;88.70;;;;;;5054959;28;20160;-52
2022/03/26 02:36:21;;;;;;;57.20;37.22;;;8.80;89.30;;;;;;5041308;28;20536;-51
2022/03/26 02:39:06;;;;;;;53.22;37.10;;;8.80;90.10;;;;;;5019561;28;20106;-52
2022/03/26 02:41:50;;;;;;;53.97;37.03;;;8.70;90.30;;;;;;5035471;28;20033;-51
2022/03/26 02:44:34;;;;;;;55.50;38.57;;;8.70;90.40;;;;;;5035236;28;20460;-51
2022/03/26 02:47:18;;;;;;;52.22;36.55;;;8.70;90.40;;;;;;5033621;28;20076;-51
2022/03/26 02:50:03;;;;;;;54.45;37.60;;;8.70;90.50;;;;;;5033157;28;20084;-50
2022/03/26 02:52:50;;;;;;;;;;;8.60;90.50;;;;;;5028751;28;20037;-50
2022/03/26 02:55:34;;;;;;;56.13;36.25;;;8.60;90.50;;;;;;5033801;28;20284;-54
2022/03/26 02:58:19;;;;;;;55.25;36.92;;;8.60;90.60;;;;;;5036859;28;20509;-49
2022/03/26 03:01:03;;;;;;;;;;;8.60;90.70;;;;;;5033530;28;20072;-49
2022/03/26 03:03:47;;;;;;;58.33;36.80;;;8.50;91.00;;;;;;5031482;28;19931;-55
2022/03/26 03:06:32;;;;;;;60.28;39.40;;;8.50;91.50;;;;;;5036209;28;20039;-49
2022/03/26 03:09:17;;;;;;;56.60;37.17;;;8.40;91.80;;;;;;5034928;28;20072;-51
2022/03/26 03:12:01;;;;;;;;;;;8.30;91.60;;;;;;5021565;28;20044;-54
2022/03/26 03:14:46;;;;;;;54.70;36.00;;;8.30;92.00;;;;;;5024475;28;19962;-51
2022/03/26 03:17:36;;;;;;;52.13;36.03;;;8.30;92.00;;;;;;5025190;28;20091;-51
2022/03/26 03:20:21;;;;;;;60.47;37.92;;;8.30;92.00;;;;;;5024383;28;20030;-51
2022/03/26 03:23:05;;;;;;;55.17;37.13;;;8.30;92.10;;;;;;5029066;28;20102;-52
2022/03/26 03:25:50;;;;;;;56.10;37.22;;;8.30;92.30;;;;;;5045332;28;20032;-51
2022/03/26 03:28:34;;;;;;;57.40;38.00;;;8.30;92.40;;;;;;5054246;28;20531;-52
2022/03/26 03:31:18;;;;;;;57.67;37.25;;;8.20;92.40;;;;;;5053747;28;20446;-48
2022/03/26 03:34:03;;;;;;;56.92;36.47;;;8.10;92.40;;;;;;5053734;28;20036;-52
2022/03/26 03:36:47;;;;;;;58.53;36.08;;;8.10;92.20;;;;;;5037099;28;20663;-50
2022/03/26 03:39:31;;;;;;;55.53;36.15;;;8.20;92.30;;;;;;5040714;28;20408;-50
2022/03/26 03:42:15;;;;;;;54.53;34.72;;;8.20;92.00;;;;;;5025370;28;20049;-49
2022/03/26 03:45:00;;;;;;;54.85;35.80;;;8.20;92.00;;;;;;5033375;28;20040;-50
2022/03/26 03:47:44;;;;;;;55.47;35.88;;;8.20;92.10;;;;;;5033389;28;20056;-48
2022/03/26 03:50:28;;;;;;;59.60;37.58;;;8.20;91.90;;;;;;5033427;28;20128;-49
2022/03/26 03:53:13;;;;;;;60.00;35.30;;;8.20;91.90;;;;;;5018477;28;20029;-53
2022/03/26 03:55:57;;;;;;;55.67;35.55;;;8.20;91.90;;;;;;5034279;28;20056;-49
2022/03/26 03:58:41;;;;;;;56.60;35.90;;;8.10;91.70;;;;;;5033283;28;20524;-51
2022/03/26 04:01:25;;;;;;;63.97;37.65;;;8.10;91.10;;;;;;5033733;28;20036;-51
2022/03/26 04:04:09;;;;;;;59.30;34.93;;;8.00;91.60;;;;;;5033463;28;20090;-51
2022/03/26 04:06:53;;;;;;;55.38;34.85;;;7.90;91.80;;;;;;5033689;28;20036;-49
2022/03/26 04:09:37;;;;;;;54.08;35.85;;;7.90;91.90;;;;;;5032692;28;20185;-48
2022/03/26 04:12:21;;;;;;;55.95;35.35;;;8.00;92.00;;;;;;5037075;28;20094;-51
2022/03/26 04:15:07;;;;;;;57.43;36.50;;;8.00;91.70;;;;;;5052352;28;20450;-50
2022/03/26 04:17:54;;;;;;;55.22;35.75;;;7.90;91.90;;;;;;5034997;28;20087;-49
2022/03/26 04:20:40;;;;;;;53.67;35.47;;;7.90;92.20;;;;;;5032535;28;20559;-49
2022/03/26 04:23:24;;;;;;;56.30;34.15;;;7.90;92.40;;;;;;5032527;28;20320;-54
2022/03/26 04:26:09;;;;;;;54.80;34.55;;;7.90;92.60;;;;;;5033158;28;20040;-50
2022/03/26 04:28:53;;;;;;;52.70;35.50;;;8.00;92.60;;;;;;5032995;28;20040;-48
2022/03/26 04:31:37;;;;;;;57.72;35.60;;;7.90;92.60;;;;;;5032059;28;20036;-53
2022/03/26 04:34:22;;;;;;;53.78;35.75;;;7.90;92.80;;;;;;5031960;28;20075;-49
2022/03/26 04:37:06;;;;;;;54.50;35.67;;;7.90;92.80;;;;;;5032067;28;20040;-50
2022/03/26 04:39:50;;;;;;;54.73;36.77;;;8.00;92.50;;;;;;5032765;28;20202;-49
2022/03/26 04:42:34;;;;;;;57.38;34.80;;;7.90;92.70;;;;;;5032478;28;20511;-49
2022/03/26 04:45:19;;;;;;;53.60;35.20;;;7.90;93.00;;;;;;5031960;28;20040;-48
2022/03/26 04:48:03;;;;;;;56.33;35.08;;;7.90;93.20;;;;;;5031879;28;20447;-53
2022/03/26 04:50:47;;;;;;;55.25;35.63;;;7.90;93.30;;;;;;5031760;28;20043;-51
2022/03/26 04:53:31;;;;;;;58.65;36.92;;;7.80;93.40;;;;;;5028059;28;20038;-51
2022/03/26 04:56:15;;;;;;;58.28;37.35;;;7.90;93.30;;;;;;5035109;28;20036;-51
2022/03/26 04:58:59;;;;;;;55.70;35.97;;;7.90;93.10;;;;;;5037003;28;20035;-51
2022/03/26 05:01:44;;;;;;;57.35;35.60;;;8.00;93.30;;;;;;5052271;28;20079;-48
2022/03/26 05:04:28;;;;;;;55.25;35.45;;;7.90;93.50;;;;;;5052679;28;20040;-52
2022/03/26 05:10:23;;;;;;;53.63;33.88;;;7.90;93.60;;;;;;5043141;28;20063;-50
2022/03/26 05:13:07;;;;;;;55.10;35.95;;;7.90;93.70;;;;;;5032464;28;20394;-48
2022/03/26 05:15:52;;;;;;;54.75;34.38;;;7.90;93.50;;;;;;5033248;28;20029;-50
2022/03/26 05:18:36;;;;;;;54.58;34.90;;;7.90;93.60;;;;;;5032213;28;20095;-50
2022/03/26 05:21:21;;;;;;;57.55;37.15;;;7.80;93.60;;;;;;5032192;28;20032;-48
2022/03/26 05:24:06;;;;;;;58.05;35.78;;;7.80;93.80;;;;;;5031999;28;20049;-52
2022/03/26 05:26:50;;;;;;;61.67;35.72;;;7.90;93.70;;;;;;5017211;28;20036;-50
2022/03/26 05:29:34;;;;;;;71.18;44.60;;;8.00;93.70;;;;;;5031438;28;20048;-50
2022/03/26 05:32:19;;;;;;;67.43;41.85;;;8.00;93.70;;;;;;5041091;28;20044;-52
2022/03/26 05:35:06;;;;;;;59.05;37.72;;;8.00;93.90;;;;;;5032826;28;20036;-48
2022/03/26 05:37:51;;;;;;;61.90;36.08;;;7.90;94.00;;;;;;5031720;28;20396;-51
2022/03/26 05:40:35;;;;;;;52.15;34.13;;;8.00;93.80;;;;;;5040101;28;20056;-50
2022/03/26 05:43:19;;;;;;;52.28;34.63;;;8.00;93.90;;;;;;4983826;28;20088;-51
2022/03/26 05:46:04;;;;;;;59.13;37.97;;;8.00;94.00;;;;;;5014357;28;20103;-51
2022/03/26 05:48:48;;;;;;;;;;;7.90;93.80;;;;;;5014931;28;20116;-51
2022/03/26 05:51:32;;;;;;;59.08;35.13;;;7.90;93.50;;;;;;4999351;28;20048;-51
2022/03/26 05:54:17;;;;;;;59.58;35.72;;;7.90;93.40;;;;;;5022476;28;20656;-48
2022/03/26 05:57:01;;;;;;;56.90;35.53;;;7.80;93.80;;;;;;5013921;28;20088;-50
2022/03/26 05:59:45;;;;;;;57.33;34.75;;;7.80;94.00;;;;;;5006440;28;20116;-52
2022/03/26 06:02:29;;;;;;;54.63;35.67;;;7.60;94.20;;;;;;5039492;28;20028;-49
2022/03/26 06:05:14;;;;;;;64.70;36.20;;;7.50;94.40;;;;;;5019107;22;1296569;-77
2022/03/26 06:07:58;;;;;;;65.65;38.25;;;7.40;94.90;;;;;;5035469;28;20056;-77
2022/03/26 06:10:41;;;;;;;57.97;36.50;;;7.30;95.20;;;;;;5043054;28;20039;-77
2022/03/26 06:13:26;;;;;;;58.38;35.75;;;7.30;95.80;;;;;;5059184;28;20085;-78
2022/03/26 06:16:10;;;;;;;58.80;35.67;;;7.30;95.80;;;;;;5037192;28;20039;-78
2022/03/26 06:18:54;;;;;;;57.03;36.80;;;7.30;96.20;;;;;;5049910;28;20044;-76
2022/03/26 06:21:38;;;;;;;62.90;37.13;;;7.40;95.90;;;;;;5035686;28;20090;-77
2022/03/26 06:24:23;;;;;;;64.22;37.60;;;7.40;95.90;;;;;;5047025;28;20040;-77
2022/03/26 06:27:07;;;;;;;59.33;36.90;;;7.30;96.10;;;;;;5048379;28;20040;-78
2022/03/26 06:29:52;;;;;;;58.75;37.17;;;7.30;96.00;;;;;;5058833;28;20139;-76
2022/03/26 06:32:36;;;;;;;63.10;36.33;;;7.40;96.10;;;;;;5062263;28;20204;-76
2022/03/26 06:35:20;;;;;;;58.47;36.70;;;7.50;95.80;;;;;;5049319;28;20048;-76
2022/03/26 06:38:05;;;;;;;57.03;35.80;;;7.60;95.70;;;;;;5050639;28;20714;-76
2022/03/26 06:40:49;;;;;;;61.85;37.35;;;7.60;95.80;;;;;;5061888;28;20063;-77
2022/03/26 06:43:37;;;;;;;57.65;38.08;;;7.90;95.20;;;;;;5029428;28;20068;-76
2022/03/26 06:46:21;;;;;;;58.70;36.47;;;8.00;95.00;;;;;;5041516;28;20041;-76
2022/03/26 06:49:10;;;;;;;56.33;34.72;;;8.10;95.00;;;;;;5012276;28;20044;-77
2022/03/26 06:51:54;;;;;;;57.95;36.40;;;8.40;94.30;;;;;;5044549;28;20052;-76
2022/03/26 06:54:39;;;;;;;52.65;35.17;;;8.50;94.00;;;;;;5024964;28;20083;-75
2022/03/26 06:57:23;;;;;;;61.30;37.13;;;8.70;93.70;;;;;;5009839;28;20120;-76
2022/03/26 07:00:13;;;;;;;57.70;36.65;;;8.80;93.30;;;;;;5008989;28;20130;-76
2022/03/26 07:02:57;;;;;;;52.47;36.80;;;8.90;93.00;;;;;;4998309;28;20040;-77
2022/03/26 07:05:41;;;;;;;56.95;36.92;;;9.00;92.80;;;;;;5013722;28;20455;-80
2022/03/26 07:08:26;;;;;;;55.92;37.33;;;9.00;92.60;;;;;;5009490;28;20063;-77
2022/03/26 07:11:10;;;;;;;55.47;38.15;;;9.10;92.90;;;;;;5045581;28;20040;-78
2022/03/26 07:13:54;;;;;;;57.22;38.83;;;9.10;92.60;;;;;;5045818;28;20036;-78
2022/03/26 07:16:38;;;;;;;52.30;35.63;;;9.30;92.60;;;;;;5045658;28;20031;-78
2022/03/26 07:19:22;;;;;;;59.75;35.95;;;9.30;92.60;;;;;;5075071;28;20036;-76
2022/03/26 07:22:06;;;;;;;58.40;37.42;;;9.40;92.80;;;;;;5065158;28;20043;-80
2022/03/26 07:24:50;;;;;;;57.58;36.25;;;9.40;92.80;;;;;;5065307;28;20032;-77
2022/03/26 07:27:35;;;;;;;58.95;38.95;;;9.30;93.00;;;;;;5065349;28;20090;-78
2022/03/26 07:30:20;;;;;;;53.53;37.72;;;9.40;93.20;;;;;;5065948;28;20035;-77
2022/03/26 07:33:04;;;;;;;58.00;37.50;;;9.50;93.10;;;;;;5051819;28;20439;-78
2022/03/26 07:35:48;;;;;;;60.87;38.40;;;9.60;93.20;;;;;;5056367;28;20170;-78
2022/03/26 07:38:32;;;;;;;59.28;36.75;;;9.60;93.40;;;;;;5050345;28;20036;-77
2022/03/26 07:41:21;;;;;;;58.92;37.47;;;9.80;93.10;;;;;;5033474;28;20037;-77
2022/03/26 07:44:06;;;;;;;61.13;37.40;;;9.70;93.60;;;;;;5046855;28;20032;-77
2022/03/26 07:46:52;;;;;;;63.67;35.78;;;9.90;93.60;;;;;;5034338;28;20105;-76
2022/03/26 07:49:42;;;;;;;57.53;37.63;;;10.20;92.90;;;;;;5046107;28;20040;-78
2022/03/26 07:52:27;;;;;;;62.45;38.13;;;10.20;93.00;;;;;;5045608;28;20098;-76
2022/03/26 07:55:12;;;;;;;57.53;37.47;;;10.30;92.90;;;;;;5046826;28;20040;-77
2022/03/26 07:57:57;;;;;;;59.72;37.53;;;10.20;93.10;;;;;;5032476;28;20064;-77
2022/03/26 08:00:41;;;;;;;58.75;37.55;;;10.30;92.90;;;;;;5031887;28;20063;-77
2022/03/26 08:03:26;;;;;;;59.83;38.35;;;10.40;92.80;;;;;;5046390;28;20036;-77
2022/03/26 08:06:10;;;;;;;63.63;38.45;;;10.50;92.70;;;;;;5032020;28;20051;-78
2022/03/26 08:08:55;;;;;;;57.20;37.85;;;10.70;92.60;;;;;;5040860;28;20035;-79
2022/03/26 08:11:39;;;;;;;51.72;34.33;;;10.60;92.60;;;;;;5055502;28;20048;-78
2022/03/26 08:14:23;;;;;;;58.00;37.22;;;10.90;92.30;;;;;;5039996;28;20032;-78
2022/03/26 08:17:07;;;;;;;60.13;37.35;;;11.20;91.90;;;;;;5034946;28;20032;-77
2022/03/26 08:19:52;;;;;;;55.08;34.75;;;11.40;91.00;;;;;;5045022;28;20036;-77
2022/03/26 08:22:36;;;;;;;58.75;35.95;;;11.60;90.70;;;;;;5015128;28;20044;-77
2022/03/26 08:28:23;;;;;;;55.15;36.90;;;12.00;89.00;;;;;;5052619;28;20047;-77
2022/03/26 08:31:10;;;;;;;59.50;37.90;;;12.20;89.10;;;;;;5028877;28;20035;-77
2022/03/26 08:33:55;;;;;;;60.88;37.88;;;12.30;88.50;;;;;;5058467;28;20032;-78
2022/03/26 08:36:40;;;;;;;63.05;35.72;;;12.40;88.40;;;;;;5052791;28;20028;-77
2022/03/26 08:39:24;;;;;;;55.67;33.13;;;12.50;87.70;;;;;;5040056;28;20113;-77
2022/03/26 08:42:08;;;;;;;53.28;30.92;;;12.50;88.60;;;;;;5046767;28;20043;-76
2022/03/26 08:44:53;;;;;;;43.05;28.58;;;12.80;87.70;;;;;;5044101;28;20126;-78
2022/03/26 08:47:37;;;;;;;51.83;29.75;;;12.80;87.90;;;;;;5029657;28;20040;-78
2022/03/26 08:50:23;;;;;;;42.95;26.20;;;12.90;87.70;;;;;;5034789;28;20443;-78
2022/03/26 08:53:07;;;;;;;47.20;28.17;;;12.90;88.80;;;;;;5024485;28;20128;-77
2022/03/26 08:55:52;;;;;;;43.17;25.17;;;12.80;88.10;;;;;;5044304;28;20040;-76
2022/03/26 08:58:36;;;;;;;46.83;29.05;;;12.80;89.20;;;;;;5063519;28;20070;-76
2022/03/26 09:01:21;;;;;;;36.90;25.08;;;12.90;88.90;;;;;;5046575;28;20041;-77
2022/03/26 09:04:06;;;;;;;43.53;24.88;;;13.00;88.80;;;;;;5050157;28;20078;-77
2022/03/26 09:06:50;;;;;;;33.13;21.20;;;13.20;88.70;;;;;;5064121;28;20052;-77
2022/03/26 09:09:35;;;;;;;;;;;13.40;88.60;;;;;;5073629;28;20043;-78
2022/03/26 09:12:19;;;;;;;32.63;22.33;;;13.50;88.10;;;;;;5066711;28;19926;-77
2022/03/26 09:15:06;;;;;;;33.10;22.57;;;13.50;88.10;;;;;;5032619;28;20040;-77
2022/03/26 09:17:51;;;;;;;30.08;20.42;;;13.40;88.30;;;;;;5062067;28;20294;-78
2022/03/26 09:20:38;;;;;;;32.83;20.33;;;13.60;87.80;;;;;;5038190;28;20040;-78
2022/03/26 09:23:23;;;;;;;29.95;21.65;;;13.70;87.70;;;;;;5030314;28;20048;-77
2022/03/26 09:26:07;;;;;;;33.53;21.67;;;13.70;87.50;;;;;;5025077;28;20036;-77
2022/03/26 09:28:52;;;;;;;35.67;21.60;;;13.80;87.10;;;;;;5025500;28;20037;-76
2022/03/26 09:31:36;;;;;;;29.07;19.70;;;13.80;86.80;;;;;;5038902;28;20071;-76
2022/03/26 09:34:20;;;;;;;32.87;19.53;;;13.90;86.70;;;;;;5080023;28;20274;-77
2022/03/26 09:37:07;;;;;;;33.63;21.45;;;13.80;86.50;;;;;;5028734;28;20306;-77
2022/03/26 09:39:51;;;;;;;30.77;19.77;;;14.00;86.50;;;;;;5027026;28;20051;-77
2022/03/26 09:42:37;;;;;;;26.25;19.67;;;14.10;86.00;;;;;;5023131;28;20040;-77
2022/03/26 09:45:22;;;;;;;28.10;18.27;;;14.30;85.80;;;;;;5024934;28;20048;-76
2022/03/26 09:48:07;;;;;;;26.20;16.88;;;14.50;85.10;;;;;;5012262;28;20068;-77
2022/03/26 09:50:53;;;;;;;21.40;15.68;;;14.60;84.00;;;;;;5039840;28;20079;-77
2022/03/26 09:53:37;;;;;;;19.88;14.93;;;14.60;83.00;;;;;;5025307;28;20136;-77
2022/03/26 09:56:23;;;;;;;18.88;14.68;;;14.40;84.40;;;;;;4999159;28;20460;-77
2022/03/26 09:59:08;;;;;;;22.95;15.77;;;14.60;83.30;;;;;;5033407;28;20064;-76
2022/03/26 10:01:53;;;;;;;24.15;16.17;;;14.70;82.60;;;;;;5040016;28;20112;-77
2022/03/26 10:04:39;;;;;;;22.23;16.58;;;14.60;82.90;;;;;;5008301;28;20109;-77
2022/03/26 10:07:30;;;;;;;22.35;16.00;;;14.60;83.20;;;;;;5043005;28;20121;-76
2022/03/26 10:10:23;;;;;;;24.00;16.67;;;14.60;83.80;;;;;;5041458;28;20086;-75
2022/03/26 10:13:07;;;;;;;31.33;15.73;;;14.60;83.70;;;;;;5038410;28;20032;-77
2022/03/26 10:16:03;;;;;;;22.83;15.10;;;14.70;82.30;;;;;;5017911;28;20062;-76
2022/03/26 10:18:48;;;;;;;21.75;15.60;;;14.70;82.00;;;;;;5050214;28;20535;-76
2022/03/26 10:21:32;;;;;;;29.52;16.85;;;14.70;81.90;;;;;;5064276;28;20032;-77
2022/03/26 10:24:23;;;;;;;21.63;14.98;;;14.70;82.40;;;;;;5042639;28;20048;-76
2022/03/26 10:27:11;;;;;;;20.60;15.15;;;14.80;81.80;;;;;;5040912;28;20273;-78
2022/03/26 10:30:01;;;;;;;22.23;15.45;;;14.70;81.90;;;;;;5031774;28;20063;-76
2022/03/26 10:32:49;;;;;;;20.77;15.90;;;14.90;81.20;;;;;;5037170;28;20027;-76
2022/03/26 10:35:33;;;;;;;23.33;15.68;;;15.00;81.50;;;;;;5066528;28;20024;-77
2022/03/26 10:38:42;;;;;;;20.17;14.30;;;15.10;81.20;;;;;;5057705;28;20036;-76
2022/03/26 10:41:33;;;;;;;20.17;15.45;;;15.10;80.10;;;;;;5037791;28;20523;-77
2022/03/26 10:44:31;;;;;;;24.08;15.80;;;15.10;79.90;;;;;;5033751;28;20044;-76
2022/03/26 10:47:16;;;;;;;24.33;15.15;;;15.20;80.00;;;;;;5039372;28;20128;-77
2022/03/26 10:50:05;;;;;;;20.67;16.15;;;15.20;80.20;;;;;;5033286;28;20067;-76
2022/03/26 10:52:52;;;;;;;26.50;15.73;;;15.30;80.20;;;;;;5050011;28;20095;-78
2022/03/26 10:55:43;;;;;;;17.20;12.02;;;15.30;80.20;;;;;;5066164;28;20031;-79
2022/03/26 10:58:36;;;;;;;16.73;11.10;;;15.50;78.50;;;;;;5048712;28;20035;-79
2022/03/26 11:01:20;;;;;;;17.42;12.18;;;15.50;78.50;;;;;;5035837;28;20100;-80
2022/03/26 11:04:05;;;;;;;14.82;12.73;;;15.50;78.50;;;;;;5033030;28;20039;-77
2022/03/26 11:06:50;;;;;;;18.85;13.85;;;15.60;79.90;;;;;;5030292;28;21422;-77
2022/03/26 11:09:38;;;;;;;16.20;12.63;;;15.70;77.90;;;;;;5042946;28;20045;-76
2022/03/26 11:12:23;;;;;;;16.77;12.98;;;15.60;78.20;;;;;;5049581;28;20118;-76
2022/03/26 11:15:14;;;;;;;15.85;11.45;;;15.80;77.60;;;;;;5012036;28;20589;-76
2022/03/26 11:18:31;;;;;;;14.20;11.15;;;15.80;76.60;;;;;;5061627;28;20507;-76
2022/03/26 11:21:53;;;;;;;21.40;12.65;;;15.80;77.50;;;;;;5043324;28;20055;-79
2022/03/26 11:24:47;;;;;;;18.75;12.32;;;15.80;77.00;;;;;;5047901;28;20032;-78
2022/03/26 11:27:53;;;;;;;19.00;12.37;;;15.80;77.50;;;;;;5063735;28;20036;-78
2022/03/26 11:31:05;;;;;;;15.40;11.02;;;15.90;75.60;;;;;;5043355;28;20286;-76
2022/03/26 11:34:03;;;;;;;15.00;11.50;;;16.10;75.70;;;;;;5043893;28;20054;-78
2022/03/26 11:36:50;;;;;;;15.07;11.75;;;16.20;74.30;;;;;;5038526;28;20029;-77
2022/03/26 11:39:46;;;;;;;19.55;12.05;;;16.20;74.90;;;;;;5046776;28;20166;-78
2022/03/26 11:42:30;;;;;;;16.02;12.35;;;16.20;74.10;;;;;;5050923;28;20032;-77
2022/03/26 11:52:12;;;;;;;14.35;9.68;;;16.00;73.00;;;;;;5031264;28;20056;-77
2022/03/26 11:55:01;;;;;;;12.50;9.65;;;15.90;73.50;;;;;;5029189;28;20081;-77
2022/03/26 11:57:45;;;;;;;15.25;9.57;;;16.00;73.00;;;;;;5027079;28;20033;-76
2022/03/26 12:00:30;;;;;;;14.18;9.90;;;16.00;73.30;;;;;;5027344;28;20033;-76
2022/03/26 12:03:24;;;;;;;13.50;11.00;;;16.20;72.30;;;;;;5028582;28;20176;-77
2022/03/26 12:06:36;;;;;;;16.10;9.95;;;16.20;72.90;;;;;;5045765;28;20032;-76
2022/03/26 12:09:52;;;;;;;13.55;9.60;;;16.20;73.40;;;;;;5025943;28;20095;-77
2022/03/26 12:12:47;;;;;;;11.52;9.15;;;16.30;71.90;;;;;;5027758;28;20072;-77
2022/03/26 12:15:35;;;;;;;14.88;9.52;;;16.30;72.40;;;;;;5040606;28;20035;-75
2022/03/26 12:18:35;;;;;;;15.38;8.30;;;16.40;71.70;;;;;;5047449;28;20554;-76
2022/03/26 12:21:21;;;;;;;13.48;9.57;;;16.50;70.70;;;;;;5063512;28;20610;-78
2022/03/26 12:24:16;;;;;;;12.23;8.80;;;16.50;70.30;;;;;;5049430;28;20395;-77
2022/03/26 12:27:04;;;;;;;11.63;9.15;;;16.50;69.90;;;;;;5033609;28;20043;-77
2022/03/26 12:29:52;;;;;;;14.82;9.88;;;16.40;68.90;;;;;;5048825;28;20089;-76
2022/03/26 12:32:36;;;;;;;12.10;9.23;;;16.40;68.60;;;;;;5019617;28;20043;-77
2022/03/26 12:35:21;;;;;;;14.18;11.18;;;16.40;68.80;;;;;;5020445;28;20047;-75
2022/03/26 12:38:07;;;;;;;12.70;9.52;;;16.50;69.40;;;;;;5022057;28;20036;-77
2022/03/26 12:40:54;;;;;;;14.95;10.30;;;16.70;69.50;;;;;;5026884;28;20036;-77
2022/03/26 12:43:39;;;;;;;16.88;11.43;;;16.90;69.00;;;;;;5027119;28;20044;-77
2022/03/26 12:46:34;;;;;;;14.77;10.40;;;16.80;68.50;;;;;;5028134;28;20400;-77
2022/03/26 12:49:20;;;;;;;15.18;10.70;;;16.60;69.30;;;;;;5038397;28;20282;-78
2022/03/26 12:52:05;;;;;;;12.48;10.77;;;16.80;69.10;;;;;;5046753;28;20039;-75
2022/03/26 12:54:57;;;;;;;13.35;10.55;;;17.10;68.80;;;;;;5060902;28;20093;-76
2022/03/26 13:01:00;;;;;;;13.27;10.80;;;17.10;67.60;;;;;;5064282;28;20155;-77
2022/03/26 13:03:44;;;;;;;15.23;10.63;;;17.30;65.70;;;;;;5063098;28;20067;-76
2022/03/26 13:06:28;;;;;;;18.00;12.50;;;17.40;65.70;;;;;;5035290;28;20074;-75
2022/03/26 13:09:13;;;;;;;15.90;11.77;;;17.40;65.40;;;;;;5036295;28;20032;-77
2022/03/26 13:11:57;;;;;;;14.60;11.27;;;17.40;65.30;;;;;;5022210;28;20112;-77
2022/03/26 13:14:48;;;;;;;15.95;11.75;;;17.50;65.40;;;;;;5032293;28;20083;-77
2022/03/26 13:17:32;;;;;;;13.60;9.90;;;17.70;65.50;;;;;;5048613;28;20035;-77
2022/03/26 13:20:28;;;;;;;15.88;10.95;;;17.80;65.70;;;;;;5021086;28;20060;-76
2022/03/26 13:23:13;;;;;;;14.10;11.57;;;18.00;64.80;;;;;;5049426;28;20407;-78
2022/03/26 13:25:57;;;;;;;15.90;12.00;;;17.90;65.20;;;;;;5047436;28;20345;-78
2022/03/26 13:28:41;;;;;;;20.67;11.65;;;18.20;64.30;;;;;;5047884;28;20055;-77
2022/03/26 13:31:25;;;;;;;15.70;11.52;;;18.20;64.20;;;;;;5046605;28;20036;-79
2022/03/26 13:34:11;;;;;;;13.38;11.85;;;18.30;64.80;;;;;;5019200;28;20091;-77
2022/03/26 13:37:09;;;;;;;14.27;11.05;;;18.30;65.10;;;;;;5043560;28;20032;-76
2022/03/26 13:40:01;;;;;;;15.27;11.32;;;18.30;64.70;;;;;;5032084;28;20036;-81
2022/03/26 13:42:46;;;;;;;17.10;11.05;;;18.30;63.90;;;;;;5046810;28;20048;-78
2022/03/26 13:45:30;;;;;;;16.08;11.35;;;18.30;64.30;;;;;;5014558;28;20547;-82
2022/03/26 13:48:15;;;;;;;15.73;11.13;;;18.30;64.00;;;;;;5047864;28;20517;-80
2022/03/26 13:51:10;;;;;;;16.00;11.07;;;18.40;64.20;;;;;;5049884;28;20586;-78
2022/03/26 13:53:55;;;;;;;15.00;11.70;;;18.50;62.50;;;;;;5051808;28;20036;-79
2022/03/26 13:56:39;;;;;;;13.25;10.95;;;18.60;62.50;;;;;;5066580;28;20039;-79
2022/03/26 13:59:26;;;;;;;15.30;11.10;;;18.50;62.50;;;;;;5033533;28;20051;-80
2022/03/26 14:02:12;;;;;;;17.17;11.48;;;18.30;62.90;;;;;;5048567;28;20040;-77
2022/03/26 14:04:57;;;;;;;16.85;11.05;;;18.50;62.60;;;;;;5037204;28;20040;-80
2022/03/26 14:07:41;;;;;;;16.00;12.43;;;18.50;62.70;;;;;;5041985;28;20043;-80
2022/03/26 14:10:46;;;;;;;17.25;11.82;;;18.60;62.70;;;;;;5051717;28;20094;-79
2022/03/26 14:13:30;;;;;;;12.85;11.52;;;18.70;62.30;;;;;;5038793;28;20095;-79
2022/03/26 14:16:15;;;;;;;14.40;10.70;;;18.80;62.00;;;;;;5053164;28;20060;-80
2022/03/26 14:18:59;;;;;;;12.43;10.70;;;18.70;62.30;;;;;;5036270;28;20097;-79
2022/03/26 14:21:43;;;;;;;13.98;10.65;;;18.60;62.20;;;;;;5035614;28;20171;-78
2022/03/26 14:24:27;;;;;;;16.38;11.35;;;18.20;62.80;;;;;;5065384;28;20031;-77
2022/03/26 14:27:12;;;;;;;17.08;11.52;;;18.20;62.40;;;;;;5049823;28;20043;-77